sensor_id;sensor_type;location;lat;lon;timestamp;pressure;altitude;pressure_sealevel;temperature;humidity
44996;BME280;30729;49.486;10.792;2022-07-10T00:01:03;98241.69;;;15.26;100.00
44996;BME280;30729;49.486;10.792;2022-07-10T00:03:28;98244.88;;;15.33;100.00
44996;BME280;30729;49.486;10.792;2022-07-10T00:05:54;98238.41;;;15.42;100.00
44996;BME280;30729;49.486;10.792;2022-07-10T00:08:19;98236.28;;;15.37;100.00
44996;BME280;30729;49.486;10.792;2022-07-10T00:10:45;98235.47;;;15.51;100.00
44996;BME280;30729;49.486;10.792;2022-07-10T00:13:10;98240.41;;;15.56;100.00
44996;BME280;30729;49.486;10.792;2022-07-10T00:15:35;98243.03;;;15.60;100.00
44996;BME280;30729;49.486;10.792;2022-07-10T00:18:01;98243.44;;;15.68;100.00
44996;BME280;30729;49.486;10.792;2022-07-10T00:20:26;98239.38;;;15.69;100.00
44996;BME280;30729;49.486;10.792;2022-07-10T00:22:52;98235.66;;;15.62;100.00
44996;BME280;30729;49.486;10.792;2022-07-10T00:25:17;98237.97;;;15.79;100.00
44996;BME280;30729;49.486;10.792;2022-07-10T00:27:43;98231.97;;;15.86;100.00
44996;BME280;30729;49.486;10.792;2022-07-10T00:30:10;98229.44;;;15.88;100.00
44996;BME280;30729;49.486;10.792;2022-07-10T00:32:36;98235.28;;;15.70;100.00
44996;BME280;30729;49.486;10.792;2022-07-10T00:35:02;98231.59;;;15.49;100.00
44996;BME280;30729;49.486;10.792;2022-07-10T00:37:28;98224.75;;;15.35;100.00
44996;BME280;30729;49.486;10.792;2022-07-10T00:39:54;98222.03;;;15.26;100.00
44996;BME280;30729;49.486;10.792;2022-07-10T00:42:19;98228.72;;;15.28;100.00
44996;BME280;30729;49.486;10.792;2022-07-10T00:44:45;98228.91;;;15.25;100.00
44996;BME280;30729;49.486;10.792;2022-07-10T00:47:11;98232.00;;;15.27;100.00
44996;BME280;30729;49.486;10.792;2022-07-10T00:49:38;98233.84;;;15.30;100.00
44996;BME280;30729;49.486;10.792;2022-07-10T00:52:07;98231.41;;;15.52;100.00
44996;BME280;30729;49.486;10.792;2022-07-10T00:54:34;98231.63;;;15.34;100.00
44996;BME280;30729;49.486;10.792;2022-07-10T00:57:01;98235.88;;;15.44;100.00
44996;BME280;30729;49.486;10.792;2022-07-10T00:59:28;98237.03;;;15.52;100.00
44996;BME280;30729;49.486;10.792;2022-07-10T01:01:53;98242.66;;;15.23;100.00
44996;BME280;30729;49.486;10.792;2022-07-10T01:04:19;98243.63;;;15.20;100.00
44996;BME280;30729;49.486;10.792;2022-07-10T01:06:45;98245.00;;;15.24;100.00
44996;BME280;30729;49.486;10.792;2022-07-10T01:09:11;98240.53;;;15.47;100.00
44996;BME280;30729;49.486;10.792;2022-07-10T01:11:37;98246.53;;;15.70;100.00
44996;BME280;30729;49.486;10.792;2022-07-10T01:14:03;98246.97;;;15.83;100.00
44996;BME280;30729;49.486;10.792;2022-07-10T01:16:30;98242.66;;;15.67;100.00
44996;BME280;30729;49.486;10.792;2022-07-10T01:18:56;98249.22;;;15.79;100.00
44996;BME280;30729;49.486;10.792;2022-07-10T01:21:28;98247.38;;;15.76;100.00
44996;BME280;30729;49.486;10.792;2022-07-10T01:23:54;98238.56;;;15.83;100.00
44996;BME280;30729;49.486;10.792;2022-07-10T01:26:20;98239.50;;;15.95;100.00
44996;BME280;30729;49.486;10.792;2022-07-10T01:28:52;98237.34;;;16.04;100.00
44996;BME280;30729;49.486;10.792;2022-07-10T01:31:18;98235.22;;;15.99;100.00
44996;BME280;30729;49.486;10.792;2022-07-10T01:33:47;98227.75;;;15.96;100.00
44996;BME280;30729;49.486;10.792;2022-07-10T01:36:13;98233.31;;;15.91;100.00
44996;BME280;30729;49.486;10.792;2022-07-10T01:38:40;98230.63;;;15.81;100.00
44996;BME280;30729;49.486;10.792;2022-07-10T01:41:05;98231.78;;;15.75;100.00
44996;BME280;30729;49.486;10.792;2022-07-10T01:43:31;98229.66;;;15.70;100.00
44996;BME280;30729;49.486;10.792;2022-07-10T01:45:56;98238.63;;;15.89;100.00
44996;BME280;30729;49.486;10.792;2022-07-10T01:48:22;98236.88;;;15.91;100.00
44996;BME280;30729;49.486;10.792;2022-07-10T01:50:47;98229.31;;;15.97;100.00
44996;BME280;30729;49.486;10.792;2022-07-10T01:53:12;98231.53;;;15.93;100.00
44996;BME280;30729;49.486;10.792;2022-07-10T01:55:38;98240.66;;;15.88;100.00
44996;BME280;30729;49.486;10.792;2022-07-10T01:58:03;98234.06;;;15.91;100.00
44996;BME280;30729;49.486;10.792;2022-07-10T02:00:29;98240.84;;;15.99;100.00
44996;BME280;30729;49.486;10.792;2022-07-10T02:02:54;98247.44;;;15.96;100.00
44996;BME280;30729;49.486;10.792;2022-07-10T02:05:38;98247.47;;;15.81;100.00
44996;BME280;30729;49.486;10.792;2022-07-10T02:08:04;98247.81;;;15.89;100.00
44996;BME280;30729;49.486;10.792;2022-07-10T02:10:31;98249.09;;;15.88;100.00
44996;BME280;30729;49.486;10.792;2022-07-10T02:12:56;98248.41;;;15.93;100.00
44996;BME280;30729;49.486;10.792;2022-07-10T02:15:22;98248.41;;;15.93;100.00
44996;BME280;30729;49.486;10.792;2022-07-10T02:17:47;98251.06;;;15.82;100.00
44996;BME280;30729;49.486;10.792;2022-07-10T02:20:13;98250.84;;;15.85;100.00
44996;BME280;30729;49.486;10.792;2022-07-10T02:22:38;98255.22;;;15.86;100.00
44996;BME280;30729;49.486;10.792;2022-07-10T02:25:04;98253.94;;;15.88;100.00
44996;BME280;30729;49.486;10.792;2022-07-10T02:27:29;98247.28;;;15.85;100.00
44996;BME280;30729;49.486;10.792;2022-07-10T02:29:55;98251.16;;;15.73;100.00
44996;BME280;30729;49.486;10.792;2022-07-10T02:32:20;98248.63;;;15.75;100.00
44996;BME280;30729;49.486;10.792;2022-07-10T02:34:47;98258.31;;;15.74;100.00
44996;BME280;30729;49.486;10.792;2022-07-10T02:37:12;98255.78;;;15.76;100.00
44996;BME280;30729;49.486;10.792;2022-07-10T02:39:37;98253.28;;;15.63;100.00
44996;BME280;30729;49.486;10.792;2022-07-10T02:42:03;98255.03;;;15.60;100.00
44996;BME280;30729;49.486;10.792;2022-07-10T02:44:29;98252.72;;;15.44;100.00
44996;BME280;30729;49.486;10.792;2022-07-10T02:46:54;98259.47;;;15.52;100.00
44996;BME280;30729;49.486;10.792;2022-07-10T02:49:20;98268.19;;;15.40;100.00
44996;BME280;30729;49.486;10.792;2022-07-10T02:51:45;98260.47;;;15.34;100.00
44996;BME280;30729;49.486;10.792;2022-07-10T02:54:10;98261.91;;;15.30;100.00
44996;BME280;30729;49.486;10.792;2022-07-10T02:56:36;98262.19;;;15.32;100.00
44996;BME280;30729;49.486;10.792;2022-07-10T02:59:02;98259.09;;;15.30;100.00
44996;BME280;30729;49.486;10.792;2022-07-10T03:01:27;98256.50;;;15.41;100.00
44996;BME280;30729;49.486;10.792;2022-07-10T03:03:52;98259.69;;;15.34;100.00
44996;BME280;30729;49.486;10.792;2022-07-10T03:06:18;98255.22;;;15.27;100.00
44996;BME280;30729;49.486;10.792;2022-07-10T03:08:43;98262.19;;;15.32;100.00
44996;BME280;30729;49.486;10.792;2022-07-10T03:11:09;98253.69;;;15.41;100.00
44996;BME280;30729;49.486;10.792;2022-07-10T03:13:34;98250.09;;;15.41;100.00
44996;BME280;30729;49.486;10.792;2022-07-10T03:15:59;98259.69;;;15.34;100.00
44996;BME280;30729;49.486;10.792;2022-07-10T03:18:25;98254.84;;;15.34;100.00
44996;BME280;30729;49.486;10.792;2022-07-10T03:20:50;98243.63;;;15.34;100.00
44996;BME280;30729;49.486;10.792;2022-07-10T03:23:16;98249.84;;;15.24;100.00
44996;BME280;30729;49.486;10.792;2022-07-10T03:25:41;98256.00;;;15.13;100.00
44996;BME280;30729;49.486;10.792;2022-07-10T03:28:07;98252.53;;;15.18;100.00
44996;BME280;30729;49.486;10.792;2022-07-10T03:30:32;98260.66;;;15.16;100.00
44996;BME280;30729;49.486;10.792;2022-07-10T03:32:57;98268.09;;;15.04;100.00
44996;BME280;30729;49.486;10.792;2022-07-10T03:35:23;98265.69;;;14.97;100.00
44996;BME280;30729;49.486;10.792;2022-07-10T03:37:50;98266.44;;;14.98;100.00
44996;BME280;30729;49.486;10.792;2022-07-10T03:40:16;98271.88;;;15.16;100.00
44996;BME280;30729;49.486;10.792;2022-07-10T03:42:41;98277.13;;;15.23;100.00
44996;BME280;30729;49.486;10.792;2022-07-10T03:45:07;98273.81;;;15.25;100.00
44996;BME280;30729;49.486;10.792;2022-07-10T03:47:32;98271.38;;;15.18;100.00
44996;BME280;30729;49.486;10.792;2022-07-10T03:49:58;98276.22;;;15.32;100.00
44996;BME280;30729;49.486;10.792;2022-07-10T03:52:23;98270.72;;;15.23;100.00
44996;BME280;30729;49.486;10.792;2022-07-10T03:54:48;98283.09;;;15.31;100.00
44996;BME280;30729;49.486;10.792;2022-07-10T03:57:14;98273.41;;;15.32;100.00
44996;BME280;30729;49.486;10.792;2022-07-10T03:59:58;98269.97;;;15.37;100.00
44996;BME280;30729;49.486;10.792;2022-07-10T04:02:23;98279.44;;;15.25;100.00
44996;BME280;30729;49.486;10.792;2022-07-10T04:04:48;98274.00;;;15.36;100.00
44996;BME280;30729;49.486;10.792;2022-07-10T04:07:14;98272.28;;;15.24;100.00
44996;BME280;30729;49.486;10.792;2022-07-10T04:09:39;98282.06;;;15.43;100.00
44996;BME280;30729;49.486;10.792;2022-07-10T04:12:05;98282.53;;;15.42;100.00
44996;BME280;30729;49.486;10.792;2022-07-10T04:14:31;98277.13;;;15.38;100.00
44996;BME280;30729;49.486;10.792;2022-07-10T04:16:56;98276.31;;;15.23;100.00
44996;BME280;30729;49.486;10.792;2022-07-10T04:19:21;98279.84;;;15.32;100.00
44996;BME280;30729;49.486;10.792;2022-07-10T04:21:47;98279.22;;;15.14;100.00
44996;BME280;30729;49.486;10.792;2022-07-10T04:24:13;98273.81;;;15.25;100.00
44996;BME280;30729;49.486;10.792;2022-07-10T04:26:38;98280.00;;;15.14;100.00
44996;BME280;30729;49.486;10.792;2022-07-10T04:29:03;98273.31;;;15.11;100.00
44996;BME280;30729;49.486;10.792;2022-07-10T04:31:29;98268.97;;;15.25;100.00
44996;BME280;30729;49.486;10.792;2022-07-10T04:33:54;98275.72;;;15.19;100.00
44996;BME280;30729;49.486;10.792;2022-07-10T04:36:23;98278.03;;;15.05;100.00
44996;BME280;30729;49.486;10.792;2022-07-10T04:38:48;98281.06;;;15.17;100.00
44996;BME280;30729;49.486;10.792;2022-07-10T04:41:13;98281.34;;;15.19;100.00
44996;BME280;30729;49.486;10.792;2022-07-10T04:43:39;98289.13;;;15.24;100.00
44996;BME280;30729;49.486;10.792;2022-07-10T04:46:04;98287.75;;;15.19;100.00
44996;BME280;30729;49.486;10.792;2022-07-10T04:48:31;98286.97;;;15.19;100.00
44996;BME280;30729;49.486;10.792;2022-07-10T04:50:57;98281.34;;;15.19;100.00
44996;BME280;30729;49.486;10.792;2022-07-10T04:53:23;98283.88;;;15.31;100.00
44996;BME280;30729;49.486;10.792;2022-07-10T04:55:48;98284.72;;;15.08;100.00
44996;BME280;30729;49.486;10.792;2022-07-10T04:58:13;98281.34;;;15.04;100.00
44996;BME280;30729;49.486;10.792;2022-07-10T05:00:39;98290.06;;;15.06;100.00
44996;BME280;30729;49.486;10.792;2022-07-10T05:03:04;98295.28;;;14.98;100.00
44996;BME280;30729;49.486;10.792;2022-07-10T05:05:30;98286.78;;;15.07;100.00
44996;BME280;30729;49.486;10.792;2022-07-10T05:07:55;98293.75;;;15.27;100.00
44996;BME280;30729;49.486;10.792;2022-07-10T05:10:20;98286.22;;;15.33;100.00
44996;BME280;30729;49.486;10.792;2022-07-10T05:12:46;98293.25;;;15.14;100.00
44996;BME280;30729;49.486;10.792;2022-07-10T05:15:11;98288.03;;;15.06;100.00
44996;BME280;30729;49.486;10.792;2022-07-10T05:17:37;98288.22;;;15.03;100.00
44996;BME280;30729;49.486;10.792;2022-07-10T05:20:03;98295.47;;;15.09;100.00
44996;BME280;30729;49.486;10.792;2022-07-10T05:22:28;98298.13;;;15.28;100.00
44996;BME280;30729;49.486;10.792;2022-07-10T05:24:55;98285.22;;;15.06;100.00
44996;BME280;30729;49.486;10.792;2022-07-10T05:27:21;98294.28;;;14.86;100.00
44996;BME280;30729;49.486;10.792;2022-07-10T05:29:46;98287.72;;;15.04;100.00
44996;BME280;30729;49.486;10.792;2022-07-10T05:32:12;98294.84;;;14.76;100.00
44996;BME280;30729;49.486;10.792;2022-07-10T05:34:38;98295.88;;;14.78;100.00
44996;BME280;30729;49.486;10.792;2022-07-10T05:37:04;98299.09;;;14.86;100.00
44996;BME280;30729;49.486;10.792;2022-07-10T05:39:29;98291.59;;;15.07;100.00
44996;BME280;30729;49.486;10.792;2022-07-10T05:41:55;98286.59;;;15.11;100.00
44996;BME280;30729;49.486;10.792;2022-07-10T05:44:22;98298.34;;;15.00;100.00
44996;BME280;30729;49.486;10.792;2022-07-10T05:46:48;98310.38;;;15.16;100.00
44996;BME280;30729;49.486;10.792;2022-07-10T05:49:13;98307.22;;;15.38;100.00
44996;BME280;30729;49.486;10.792;2022-07-10T05:51:38;98303.91;;;15.39;100.00
44996;BME280;30729;49.486;10.792;2022-07-10T05:54:04;98307.81;;;15.42;100.00
44996;BME280;30729;49.486;10.792;2022-07-10T05:56:29;98313.31;;;15.51;100.00
44996;BME280;30729;49.486;10.792;2022-07-10T05:58:55;98317.94;;;15.54;100.00
44996;BME280;30729;49.486;10.792;2022-07-10T06:01:21;98320.88;;;15.59;100.00
44996;BME280;30729;49.486;10.792;2022-07-10T06:03:47;98326.31;;;15.78;100.00
44996;BME280;30729;49.486;10.792;2022-07-10T06:06:12;98314.59;;;15.65;100.00
44996;BME280;30729;49.486;10.792;2022-07-10T06:08:40;98315.34;;;15.50;100.00
44996;BME280;30729;49.486;10.792;2022-07-10T06:11:06;98316.31;;;15.62;100.00
44996;BME280;30729;49.486;10.792;2022-07-10T06:13:31;98312.38;;;15.69;100.00
44996;BME280;30729;49.486;10.792;2022-07-10T06:15:57;98305.97;;;15.83;100.00
44996;BME280;30729;49.486;10.792;2022-07-10T06:18:22;98304.19;;;16.00;100.00
44996;BME280;30729;49.486;10.792;2022-07-10T06:20:47;98305.34;;;16.08;100.00
44996;BME280;30729;49.486;10.792;2022-07-10T06:23:13;98310.13;;;16.23;100.00
44996;BME280;30729;49.486;10.792;2022-07-10T06:25:38;98313.25;;;16.25;100.00
44996;BME280;30729;49.486;10.792;2022-07-10T06:28:04;98321.63;;;16.40;100.00
44996;BME280;30729;49.486;10.792;2022-07-10T06:30:29;98326.47;;;16.39;100.00
44996;BME280;30729;49.486;10.792;2022-07-10T06:32:54;98325.41;;;16.36;99.87
44996;BME280;30729;49.486;10.792;2022-07-10T06:35:20;98321.69;;;16.25;100.00
44996;BME280;30729;49.486;10.792;2022-07-10T06:37:45;98333.44;;;16.08;100.00
44996;BME280;30729;49.486;10.792;2022-07-10T06:40:13;98328.78;;;16.05;99.22
44996;BME280;30729;49.486;10.792;2022-07-10T06:42:40;98324.56;;;15.95;93.93
44996;BME280;30729;49.486;10.792;2022-07-10T06:45:06;98324.19;;;15.73;93.77
44996;BME280;30729;49.486;10.792;2022-07-10T06:47:31;98315.25;;;15.59;87.67
44996;BME280;30729;49.486;10.792;2022-07-10T06:50:15;98319.03;;;15.86;92.18
44996;BME280;30729;49.486;10.792;2022-07-10T06:52:41;98326.44;;;16.19;93.54
44996;BME280;30729;49.486;10.792;2022-07-10T06:55:06;98322.81;;;16.33;89.58
44996;BME280;30729;49.486;10.792;2022-07-10T06:57:32;98324.16;;;16.73;98.08
44996;BME280;30729;49.486;10.792;2022-07-10T06:59:58;98327.66;;;17.08;94.27
44996;BME280;30729;49.486;10.792;2022-07-10T07:02:23;98319.31;;;17.20;80.11
44996;BME280;30729;49.486;10.792;2022-07-10T07:04:49;98317.94;;;17.09;87.02
44996;BME280;30729;49.486;10.792;2022-07-10T07:07:15;98323.06;;;17.37;89.43
44996;BME280;30729;49.486;10.792;2022-07-10T07:09:41;98324.91;;;17.66;84.02
44996;BME280;30729;49.486;10.792;2022-07-10T07:12:08;98320.66;;;17.24;83.04
44996;BME280;30729;49.486;10.792;2022-07-10T07:14:34;98325.41;;;17.13;87.85
44996;BME280;30729;49.486;10.792;2022-07-10T07:17:00;98332.88;;;16.95;86.49
44996;BME280;30729;49.486;10.792;2022-07-10T07:19:29;98325.00;;;16.99;83.26
44996;BME280;30729;49.486;10.792;2022-07-10T07:22:22;98326.44;;;17.41;82.62
44996;BME280;30729;49.486;10.792;2022-07-10T07:25:07;98324.69;;;17.44;80.43
44996;BME280;30729;49.486;10.792;2022-07-10T07:27:34;98323.66;;;17.73;83.79
44996;BME280;30729;49.486;10.792;2022-07-10T07:32:29;98325.88;;;18.21;74.68
44996;BME280;30729;49.486;10.792;2022-07-10T07:34:55;98315.06;;;17.82;68.51
44996;BME280;30729;49.486;10.792;2022-07-10T07:37:20;98330.53;;;17.66;72.64
44996;BME280;30729;49.486;10.792;2022-07-10T07:39:46;98338.22;;;17.66;69.98
44996;BME280;30729;49.486;10.792;2022-07-10T07:42:14;98321.72;;;17.53;71.49
44996;BME280;30729;49.486;10.792;2022-07-10T07:44:40;98327.97;;;17.94;66.71
44996;BME280;30729;49.486;10.792;2022-07-10T07:47:05;98331.50;;;18.21;62.55
44996;BME280;30729;49.486;10.792;2022-07-10T07:49:30;98327.94;;;18.69;66.17
44996;BME280;30729;49.486;10.792;2022-07-10T07:51:56;98324.88;;;18.67;61.73
44996;BME280;30729;49.486;10.792;2022-07-10T07:54:21;98336.34;;;18.15;64.66
44996;BME280;30729;49.486;10.792;2022-07-10T07:56:46;98338.22;;;17.92;68.04
44996;BME280;30729;49.486;10.792;2022-07-10T07:59:12;98342.44;;;17.76;69.33
44996;BME280;30729;49.486;10.792;2022-07-10T08:01:38;98341.59;;;17.70;72.01
44996;BME280;30729;49.486;10.792;2022-07-10T08:04:03;98346.47;;;17.23;78.61
44996;BME280;30729;49.486;10.792;2022-07-10T08:06:29;98340.25;;;17.39;76.85
44996;BME280;30729;49.486;10.792;2022-07-10T08:08:54;98342.69;;;17.26;75.57
44996;BME280;30729;49.486;10.792;2022-07-10T08:11:19;98341.69;;;17.29;75.44
44996;BME280;30729;49.486;10.792;2022-07-10T08:13:45;98340.56;;;17.21;78.09
44996;BME280;30729;49.486;10.792;2022-07-10T08:16:10;98349.44;;;17.34;78.54
44996;BME280;30729;49.486;10.792;2022-07-10T08:18:36;98345.66;;;17.17;81.50
44996;BME280;30729;49.486;10.792;2022-07-10T08:21:01;98348.28;;;17.00;78.18
44996;BME280;30729;49.486;10.792;2022-07-10T08:23:26;98350.59;;;17.01;81.11
44996;BME280;30729;49.486;10.792;2022-07-10T08:25:52;98352.13;;;17.02;82.11
44996;BME280;30729;49.486;10.792;2022-07-10T08:28:17;98349.75;;;16.95;85.91
44996;BME280;30729;49.486;10.792;2022-07-10T08:30:43;98345.25;;;17.03;81.88
44996;BME280;30729;49.486;10.792;2022-07-10T08:33:08;98343.38;;;17.21;82.41
44996;BME280;30729;49.486;10.792;2022-07-10T08:35:34;98341.22;;;17.10;83.57
44996;BME280;30729;49.486;10.792;2022-07-10T08:37:59;98336.59;;;17.33;86.13
44996;BME280;30729;49.486;10.792;2022-07-10T08:40:34;98337.88;;;17.32;79.43
44996;BME280;30729;49.486;10.792;2022-07-10T08:43:00;98329.22;;;17.61;78.34
44996;BME280;30729;49.486;10.792;2022-07-10T08:45:27;98327.13;;;17.56;74.39
44996;BME280;30729;49.486;10.792;2022-07-10T08:47:56;98320.81;;;17.41;77.11
44996;BME280;30729;49.486;10.792;2022-07-10T08:50:26;98333.38;;;17.20;76.00
44996;BME280;30729;49.486;10.792;2022-07-10T08:53:00;98331.53;;;17.37;75.12
44996;BME280;30729;49.486;10.792;2022-07-10T08:55:26;98333.31;;;17.60;73.05
44996;BME280;30729;49.486;10.792;2022-07-10T08:57:53;98329.50;;;17.95;72.72
44996;BME280;30729;49.486;10.792;2022-07-10T09:00:20;98332.47;;;18.12;71.29
44996;BME280;30729;49.486;10.792;2022-07-10T09:02:45;98323.63;;;18.30;73.66
44996;BME280;30729;49.486;10.792;2022-07-10T09:05:10;98333.91;;;18.39;69.82
44996;BME280;30729;49.486;10.792;2022-07-10T09:07:36;98329.53;;;18.32;72.38
44996;BME280;30729;49.486;10.792;2022-07-10T09:10:06;98321.06;;;18.27;74.53
44996;BME280;30729;49.486;10.792;2022-07-10T09:15:19;98318.66;;;19.17;71.60
44996;BME280;30729;49.486;10.792;2022-07-10T09:17:52;98322.00;;;19.15;66.77
44996;BME280;30729;49.486;10.792;2022-07-10T09:20:54;98331.38;;;18.84;70.20
44996;BME280;30729;49.486;10.792;2022-07-10T09:23:21;98331.06;;;18.71;67.89
44996;BME280;30729;49.486;10.792;2022-07-10T09:25:47;98338.09;;;18.49;69.15
44996;BME280;30729;49.486;10.792;2022-07-10T09:28:16;98326.28;;;18.45;67.83
44996;BME280;30729;49.486;10.792;2022-07-10T09:30:42;98332.28;;;18.21;74.73
44996;BME280;30729;49.486;10.792;2022-07-10T09:33:24;98333.19;;;18.07;77.74
44996;BME280;30729;49.486;10.792;2022-07-10T09:36:05;98332.94;;;18.05;78.04
44996;BME280;30729;49.486;10.792;2022-07-10T09:46:12;98326.13;;;19.14;69.27
44996;BME280;30729;49.486;10.792;2022-07-10T09:48:38;98335.16;;;19.41;69.71
44996;BME280;30729;49.486;10.792;2022-07-10T09:51:09;98329.00;;;19.48;64.06
44996;BME280;30729;49.486;10.792;2022-07-10T09:53:39;98329.00;;;19.36;67.52
44996;BME280;30729;49.486;10.792;2022-07-10T09:56:09;98328.19;;;19.25;65.47
44996;BME280;30729;49.486;10.792;2022-07-10T09:58:35;98330.50;;;18.67;73.56
44996;BME280;30729;49.486;10.792;2022-07-10T10:01:02;98337.50;;;18.71;71.43
44996;BME280;30729;49.486;10.792;2022-07-10T10:03:32;98335.06;;;18.58;75.97
44996;BME280;30729;49.486;10.792;2022-07-10T10:06:02;98332.88;;;18.31;71.02
44996;BME280;30729;49.486;10.792;2022-07-10T10:08:37;98333.03;;;18.22;75.36
44996;BME280;30729;49.486;10.792;2022-07-10T10:11:13;98345.53;;;18.09;76.89
44996;BME280;30729;49.486;10.792;2022-07-10T10:13:40;98338.88;;;17.81;76.45
44996;BME280;30729;49.486;10.792;2022-07-10T10:16:07;98337.06;;;17.78;75.56
44996;BME280;30729;49.486;10.792;2022-07-10T10:18:34;98336.78;;;17.76;77.50
44996;BME280;30729;49.486;10.792;2022-07-10T10:20:59;98339.03;;;17.98;76.27
44996;BME280;30729;49.486;10.792;2022-07-10T10:23:26;98338.06;;;18.06;77.95
44996;BME280;30729;49.486;10.792;2022-07-10T10:25:54;98339.22;;;18.26;77.19
44996;BME280;30729;49.486;10.792;2022-07-10T10:28:21;98339.56;;;18.39;74.38
44996;BME280;30729;49.486;10.792;2022-07-10T10:30:50;98328.31;;;19.81;65.55
44996;BME280;30729;49.486;10.792;2022-07-10T10:35:57;98320.25;;;20.58;62.60
44996;BME280;30729;49.486;10.792;2022-07-10T10:38:23;98319.38;;;20.91;58.67
44996;BME280;30729;49.486;10.792;2022-07-10T10:40:48;98322.13;;;20.22;58.65
44996;BME280;30729;49.486;10.792;2022-07-10T10:43:21;98321.88;;;20.03;58.92
44996;BME280;30729;49.486;10.792;2022-07-10T10:45:48;98326.69;;;19.52;53.92
44996;BME280;30729;49.486;10.792;2022-07-10T10:48:15;98322.13;;;19.88;58.15
44996;BME280;30729;49.486;10.792;2022-07-10T10:50:48;98312.91;;;19.93;55.07
44996;BME280;30729;49.486;10.792;2022-07-10T10:53:15;98324.22;;;19.93;57.09
44996;BME280;30729;49.486;10.792;2022-07-10T10:58:39;98321.09;;;19.69;61.52
44996;BME280;30729;49.486;10.792;2022-07-10T11:01:05;98323.34;;;19.36;64.11
44996;BME280;30729;49.486;10.792;2022-07-10T11:03:31;98328.59;;;18.95;63.67
44996;BME280;30729;49.486;10.792;2022-07-10T11:05:57;98325.88;;;18.63;64.92
44996;BME280;30729;49.486;10.792;2022-07-10T11:08:41;98332.41;;;18.81;64.28
44996;BME280;30729;49.486;10.792;2022-07-10T11:13:58;98334.03;;;19.04;66.91
44996;BME280;30729;49.486;10.792;2022-07-10T11:16:24;98329.13;;;19.05;65.38
44996;BME280;30729;49.486;10.792;2022-07-10T11:18:53;98328.59;;;18.95;65.34
44996;BME280;30729;49.486;10.792;2022-07-10T11:21:23;98336.81;;;18.93;68.13
44996;BME280;30729;49.486;10.792;2022-07-10T11:24:06;98330.31;;;18.76;68.78
44996;BME280;30729;49.486;10.792;2022-07-10T11:29:35;98335.16;;;18.70;66.81
44996;BME280;30729;49.486;10.792;2022-07-10T11:32:01;98329.50;;;18.70;70.62
44996;BME280;30729;49.486;10.792;2022-07-10T11:34:34;98331.63;;;18.43;73.28
44996;BME280;30729;49.486;10.792;2022-07-10T11:37:00;98336.72;;;18.33;68.44
44996;BME280;30729;49.486;10.792;2022-07-10T11:39:25;98334.63;;;18.28;71.52
44996;BME280;30729;49.486;10.792;2022-07-10T11:41:51;98326.97;;;18.34;67.88
44996;BME280;30729;49.486;10.792;2022-07-10T11:44:18;98345.94;;;18.34;67.77
44996;BME280;30729;49.486;10.792;2022-07-10T11:46:45;98329.09;;;18.40;68.09
44996;BME280;30729;49.486;10.792;2022-07-10T11:49:14;98333.22;;;18.44;68.28
44996;BME280;30729;49.486;10.792;2022-07-10T11:51:41;98320.75;;;18.68;64.60
44996;BME280;30729;49.486;10.792;2022-07-10T11:54:09;98319.91;;;18.56;65.45
44996;BME280;30729;49.486;10.792;2022-07-10T11:56:37;98330.84;;;18.80;65.72
44996;BME280;30729;49.486;10.792;2022-07-10T11:59:09;98325.00;;;18.89;66.99
44996;BME280;30729;49.486;10.792;2022-07-10T12:01:40;98321.19;;;19.09;64.15
44996;BME280;30729;49.486;10.792;2022-07-10T12:04:06;98319.72;;;19.25;58.66
44996;BME280;30729;49.486;10.792;2022-07-10T12:06:36;98320.75;;;19.27;57.47
44996;BME280;30729;49.486;10.792;2022-07-10T12:09:06;98312.97;;;19.00;58.54
44996;BME280;30729;49.486;10.792;2022-07-10T12:11:32;98318.38;;;19.03;60.37
44996;BME280;30729;49.486;10.792;2022-07-10T12:14:18;98325.81;;;19.01;63.81
44996;BME280;30729;49.486;10.792;2022-07-10T12:16:46;98327.41;;;19.19;63.16
44996;BME280;30729;49.486;10.792;2022-07-10T12:19:14;98321.78;;;19.24;61.97
44996;BME280;30729;49.486;10.792;2022-07-10T12:21:45;98326.13;;;19.25;61.30
44996;BME280;30729;49.486;10.792;2022-07-10T12:24:11;98325.22;;;19.68;55.08
44996;BME280;30729;49.486;10.792;2022-07-10T12:26:40;98321.84;;;20.14;57.10
44996;BME280;30729;49.486;10.792;2022-07-10T12:29:20;98316.72;;;20.18;55.28
44996;BME280;30729;49.486;10.792;2022-07-10T12:31:47;98313.91;;;20.01;55.59
44996;BME280;30729;49.486;10.792;2022-07-10T12:34:13;98328.81;;;19.63;60.43
44996;BME280;30729;49.486;10.792;2022-07-10T12:39:16;98325.16;;;19.45;63.32
44996;BME280;30729;49.486;10.792;2022-07-10T12:41:58;98326.66;;;19.35;58.85
44996;BME280;30729;49.486;10.792;2022-07-10T12:44:44;98321.34;;;19.65;55.66
44996;BME280;30729;49.486;10.792;2022-07-10T12:47:18;98318.28;;;19.80;54.86
44996;BME280;30729;49.486;10.792;2022-07-10T12:50:02;98317.09;;;20.84;52.11
44996;BME280;30729;49.486;10.792;2022-07-10T12:52:33;98321.25;;;20.77;50.23
44996;BME280;30729;49.486;10.792;2022-07-10T12:55:13;98322.31;;;20.63;51.67
44996;BME280;30729;49.486;10.792;2022-07-10T12:57:56;98321.69;;;20.93;53.36
44996;BME280;30729;49.486;10.792;2022-07-10T13:00:30;98323.41;;;20.21;51.95
44996;BME280;30729;49.486;10.792;2022-07-10T13:03:06;98322.63;;;20.26;51.64
44996;BME280;30729;49.486;10.792;2022-07-10T13:05:33;98324.69;;;20.08;53.93
44996;BME280;30729;49.486;10.792;2022-07-10T13:10:37;98327.28;;;19.73;57.96
44996;BME280;30729;49.486;10.792;2022-07-10T13:13:03;98327.25;;;19.61;56.02
44996;BME280;30729;49.486;10.792;2022-07-10T13:15:29;98319.81;;;19.64;61.89